Time,TemperatureF,DewpointF,PressureIn,WindDirection,WindDirectionDegrees,WindSpeedMPH,WindSpeedGustMPH,Humidity,HourlyPrecipIn,Conditions,Clouds,dailyrainin,SoftwareType,DateUTC
2013-06-21 00:04:00,65.1,64.5,30.12,NNW,337,0.0,-999.0,98,-99.99,,,0.00,Acu-Link.com,2013-06-21 04:04:00,
2013-06-21 00:19:00,64.8,64.2,30.12,NNW,337,0.0,-999.0,98,-99.99,,,0.00,Acu-Link.com,2013-06-21 04:19:00,
2013-06-21 00:34:00,64.6,64.0,30.12,NW,315,0.0,-999.0,98,-99.99,,,0.00,Acu-Link.com,2013-06-21 04:34:00,
2013-06-21 00:49:00,64.2,63.6,30.12,NNW,337,0.0,-999.0,98,-99.99,,,0.00,Acu-Link.com,2013-06-21 04:49:00,
2013-06-21 01:04:00,64.0,63.4,30.12,NNW,337,0.0,-999.0,98,-99.99,,,0.00,Acu-Link.com,2013-06-21 05:04:00,
2013-06-21 01:19:00,63.9,63.3,30.12,NW,315,0.0,-999.0,98,-99.99,,,0.00,Acu-Link.com,2013-06-21 05:19:00,
2013-06-21 01:35:00,63.7,63.1,30.11,NW,315,0.0,-999.0,98,-99.99,,,0.00,Acu-Link.com,2013-06-21 05:35:00,
2013-06-21 01:50:00,63.3,62.7,30.11,NNW,337,0.0,-999.0,98,-99.99,,,0.00,Acu-Link.com,2013-06-21 05:50:00,
2013-06-21 02:05:00,63.1,62.5,30.11,NNW,337,0.0,-999.0,98,-99.99,,,0.00,Acu-Link.com,2013-06-21 06:05:00,
2013-06-21 02:20:00,63.0,62.4,30.11,NNW,337,0.0,-999.0,98,-99.99,,,0.00,Acu-Link.com,2013-06-21 06:20:00,
2013-06-21 02:35:00,62.8,62.2,30.10,NNW,337,0.0,-999.0,98,-99.99,,,0.00,Acu-Link.com,2013-06-21 06:35:00,
2013-06-21 02:50:00,62.6,62.0,30.10,NW,315,0.0,-999.0,98,-99.99,,,0.00,Acu-Link.com,2013-06-21 06:50:00,
2013-06-21 03:05:00,62.8,62.2,30.10,NE,45,0.0,-999.0,98,-99.99,,,0.00,Acu-Link.com,2013-06-21 07:05:00,
2013-06-21 03:20:00,62.8,62.2,30.11,NNW,337,0.0,-999.0,98,-99.99,,,0.00,Acu-Link.com,2013-06-21 07:20:00,
2013-06-21 03:35:00,62.6,62.0,30.11,NNW,337,0.0,-999.0,98,-99.99,,,0.00,Acu-Link.com,2013-06-21 07:35:00,
2013-06-21 03:51:00,62.6,62.0,30.11,WNW,292,0.0,-999.0,98,-99.99,,,0.00,Acu-Link.com,2013-06-21 07:51:00,
2013-06-21 04:06:00,62.4,61.8,30.10,West,270,0.0,-999.0,98,-99.99,,,0.00,Acu-Link.com,2013-06-21 08:06:00,
2013-06-21 04:21:00,62.4,61.8,30.10,WNW,292,0.0,-999.0,98,-99.99,,,0.00,Acu-Link.com,2013-06-21 08:21:00,
2013-06-21 04:36:00,62.2,61.6,30.10,WNW,292,0.0,-999.0,98,-99.99,,,0.00,Acu-Link.com,2013-06-21 08:36:00,
2013-06-21 04:51:00,62.6,62.0,30.10,SE,135,0.0,-999.0,98,-99.99,,,0.00,Acu-Link.com,2013-06-21 08:51:00,
2013-06-21 05:06:00,63.1,62.5,30.11,East,90,0.0,-999.0,98,-99.99,,,0.00,Acu-Link.com,2013-06-21 09:06:00,
2013-06-21 05:22:00,63.0,62.4,30.11,WSW,247,0.0,-999.0,98,-99.99,,,0.00,Acu-Link.com,2013-06-21 09:22:00,
2013-06-21 05:37:00,62.6,62.0,30.12,ENE,67,0.0,-999.0,98,-99.99,,,0.00,Acu-Link.com,2013-06-21 09:37:00,
2013-06-21 05:52:00,62.4,61.8,30.12,ENE,67,0.0,-999.0,98,-99.99,,,0.00,Acu-Link.com,2013-06-21 09:52:00,
2013-06-21 06:07:00,62.2,61.6,30.12,ENE,67,0.0,-999.0,98,-99.99,,,0.00,Acu-Link.com,2013-06-21 10:07:00,
2013-06-21 06:23:00,62.1,61.5,30.13,ENE,67,0.0,-999.0,98,-99.99,,,0.00,Acu-Link.com,2013-06-21 10:23:00,
2013-06-21 06:38:00,61.9,61.3,30.13,ENE,67,0.0,-999.0,98,-99.99,,,0.00,Acu-Link.com,2013-06-21 10:38:00,
2013-06-21 06:53:00,62.2,61.6,30.14,East,90,0.0,-999.0,98,-99.99,,,0.00,Acu-Link.com,2013-06-21 10:53:00,
2013-06-21 07:08:00,62.4,61.8,30.14,West,270,0.0,-999.0,98,-99.99,,,0.00,Acu-Link.com,2013-06-21 11:08:00,
2013-06-21 07:23:00,63.3,62.7,30.14,West,270,0.0,-999.0,98,-99.99,,,0.00,Acu-Link.com,2013-06-21 11:23:00,
2013-06-21 07:38:00,64.9,64.3,30.14,ESE,112,0.0,-999.0,98,-99.99,,,0.00,Acu-Link.com,2013-06-21 11:38:00,
2013-06-21 07:53:00,68.2,67.6,30.15,ENE,67,0.0,-999.0,98,-99.99,,,0.00,Acu-Link.com,2013-06-21 11:53:00,
2013-06-21 08:09:00,71.8,71.2,30.16,ESE,112,0.0,-999.0,98,-99.99,,,0.00,Acu-Link.com,2013-06-21 12:09:00,
2013-06-21 08:24:00,75.4,71.6,30.16,SSE,157,3.2,-999.0,88,-99.99,,,0.00,Acu-Link.com,2013-06-21 12:24:00,
2013-06-21 08:39:00,76.5,70.6,30.16,ENE,67,2.2,-999.0,82,-99.99,,,0.00,Acu-Link.com,2013-06-21 12:39:00,
2013-06-21 08:54:00,77.5,69.7,30.17,SSW,202,1.7,-999.0,77,-99.99,,,0.00,Acu-Link.com,2013-06-21 12:54:00,
2013-06-21 09:09:00,78.3,68.1,30.17,ESE,112,4.2,-999.0,71,-99.99,,,0.00,Acu-Link.com,2013-06-21 13:09:00,
2013-06-21 09:24:00,79.2,69.0,30.17,SSE,157,3.2,-999.0,71,-99.99,,,0.00,Acu-Link.com,2013-06-21 13:24:00,
2013-06-21 09:39:00,80.6,69.0,30.16,West,270,1.7,-999.0,68,-99.99,,,0.00,Acu-Link.com,2013-06-21 13:39:00,
2013-06-21 09:54:00,82.6,68.7,30.16,East,90,2.7,-999.0,63,-99.99,,,0.00,Acu-Link.com,2013-06-21 13:54:00,
2013-06-21 10:10:00,83.8,70.3,30.16,NE,45,3.7,-999.0,64,-99.99,,,0.00,Acu-Link.com,2013-06-21 14:10:00,
2013-06-21 10:25:00,82.8,68.9,30.16,West,270,3.7,-999.0,63,-99.99,,,0.00,Acu-Link.com,2013-06-21 14:25:00,
2013-06-21 10:40:00,84.2,69.3,30.16,SSW,202,2.2,-999.0,61,-99.99,,,0.00,Acu-Link.com,2013-06-21 14:40:00,
2013-06-21 10:55:00,84.6,70.6,30.16,North,0,3.7,-999.0,63,-99.99,,,0.00,Acu-Link.com,2013-06-21 14:55:00,
2013-06-21 11:11:00,86.0,70.0,30.16,ESE,112,4.2,-999.0,59,-99.99,,,0.00,Acu-Link.com,2013-06-21 15:11:00,
2013-06-21 11:26:00,86.4,70.8,30.16,NE,45,4.2,-999.0,60,-99.99,,,0.00,Acu-Link.com,2013-06-21 15:26:00,
2013-06-21 11:41:00,85.3,69.8,30.16,SE,135,3.2,-999.0,60,-99.99,,,0.00,Acu-Link.com,2013-06-21 15:41:00,
2013-06-21 11:56:00,85.8,71.2,30.16,ENE,67,1.7,-999.0,62,-99.99,,,0.00,Acu-Link.com,2013-06-21 15:56:00,
2013-06-21 12:11:00,86.4,71.3,30.16,North,0,3.2,-999.0,61,-99.99,,,0.00,Acu-Link.com,2013-06-21 16:11:00,
2013-06-21 12:26:00,83.3,70.3,30.15,NE,45,1.1,-999.0,65,-99.99,,,0.00,Acu-Link.com,2013-06-21 16:26:00,
2013-06-21 12:41:00,87.6,71.5,30.15,ESE,112,2.7,-999.0,59,-99.99,,,0.00,Acu-Link.com,2013-06-21 16:41:00,
2013-06-21 12:57:00,85.1,69.1,30.15,ESE,112,0.0,-999.0,59,-99.99,,,0.00,Acu-Link.com,2013-06-21 16:57:00,
2013-06-21 13:12:00,86.5,71.4,30.15,ESE,112,3.2,-999.0,61,-99.99,,,0.00,Acu-Link.com,2013-06-21 17:12:00,
2013-06-21 13:27:00,88.0,70.3,30.14,ENE,67,1.1,-999.0,56,-99.99,,,0.00,Acu-Link.com,2013-06-21 17:27:00,
2013-06-21 13:43:00,87.8,70.6,30.13,ENE,67,4.2,-999.0,57,-99.99,,,0.00,Acu-Link.com,2013-06-21 17:43:00,
2013-06-21 13:58:00,90.5,71.0,30.13,South,180,2.2,-999.0,53,-99.99,,,0.00,Acu-Link.com,2013-06-21 17:58:00,
2013-06-21 14:13:00,90.7,71.7,30.13,NNE,22,6.3,-999.0,54,-99.99,,,0.00,Acu-Link.com,2013-06-21 18:13:00,
2013-06-21 14:28:00,90.0,71.1,30.12,WSW,247,0.0,-999.0,54,-99.99,,,0.00,Acu-Link.com,2013-06-21 18:28:00,
2013-06-21 14:43:00,90.1,70.1,30.11,East,90,2.2,-999.0,52,-99.99,,,0.00,Acu-Link.com,2013-06-21 18:43:00,
2013-06-21 14:58:00,89.6,69.6,30.11,ESE,112,2.7,-999.0,52,-99.99,,,0.00,Acu-Link.com,2013-06-21 18:58:00,
2013-06-21 15:14:00,90.7,70.0,30.11,ESE,112,5.8,-999.0,51,-99.99,,,0.00,Acu-Link.com,2013-06-21 19:14:00,
2013-06-21 15:29:00,89.8,68.1,30.10,ESE,112,5.3,-999.0,49,-99.99,,,0.00,Acu-Link.com,2013-06-21 19:29:00,
2013-06-21 15:44:00,91.0,68.5,30.10,ENE,67,3.2,-999.0,48,-99.99,,,0.00,Acu-Link.com,2013-06-21 19:44:00,
2013-06-21 15:59:00,90.1,67.1,30.09,WNW,292,3.2,-999.0,47,-99.99,,,0.00,Acu-Link.com,2013-06-21 19:59:00,
2013-06-21 16:14:00,90.3,67.9,30.09,ENE,67,5.3,-999.0,48,-99.99,,,0.00,Acu-Link.com,2013-06-21 20:14:00,
2013-06-21 16:29:00,90.5,68.1,30.09,East,90,3.7,-999.0,48,-99.99,,,0.00,Acu-Link.com,2013-06-21 20:29:00,
2013-06-21 17:00:00,90.7,70.0,30.07,NNW,337,0.0,-999.0,51,-99.99,,,0.00,Acu-Link.com,2013-06-21 21:00:00,
2013-06-21 17:15:00,90.1,67.1,30.07,ENE,67,2.7,-999.0,47,-99.99,,,0.00,Acu-Link.com,2013-06-21 21:15:00,
2013-06-21 17:30:00,88.7,65.8,30.06,NNE,22,1.7,-999.0,47,-99.99,,,0.00,Acu-Link.com,2013-06-21 21:30:00,
2013-06-21 18:01:00,86.5,66.2,30.06,WNW,292,1.7,-999.0,51,-99.99,,,0.00,Acu-Link.com,2013-06-21 22:01:00,
2013-06-21 18:16:00,83.3,64.9,30.06,ENE,67,0.0,-999.0,54,-99.99,,,0.00,Acu-Link.com,2013-06-21 22:16:00,
2013-06-21 18:31:00,81.7,65.0,30.05,SSW,202,0.0,-999.0,57,-99.99,,,0.00,Acu-Link.com,2013-06-21 22:31:00,
2013-06-21 18:46:00,81.1,65.9,30.06,ESE,112,3.7,-999.0,60,-99.99,,,0.00,Acu-Link.com,2013-06-21 22:46:00,
2013-06-21 19:01:00,80.4,65.7,30.06,NNW,337,2.2,-999.0,61,-99.99,,,0.00,Acu-Link.com,2013-06-21 23:01:00,
2013-06-21 19:17:00,79.7,66.0,30.06,West,270,0.0,-999.0,63,-99.99,,,0.00,Acu-Link.com,2013-06-21 23:17:00,
2013-06-21 19:32:00,79.0,65.8,30.06,NNW,337,0.0,-999.0,64,-99.99,,,0.00,Acu-Link.com,2013-06-21 23:32:00,
2013-06-21 19:47:00,77.9,66.5,30.06,ENE,67,0.0,-999.0,68,-99.99,,,0.00,Acu-Link.com,2013-06-21 23:47:00,
2013-06-21 20:02:00,77.0,69.2,30.06,ESE,112,0.0,-999.0,77,-99.99,,,0.00,Acu-Link.com,2013-06-22 00:02:00,
2013-06-21 20:17:00,75.7,69.1,30.06,NNW,337,0.0,-999.0,80,-99.99,,,0.00,Acu-Link.com,2013-06-22 00:17:00,
2013-06-21 20:32:00,74.3,68.8,30.06,NNE,22,0.0,-999.0,83,-99.99,,,0.00,Acu-Link.com,2013-06-22 00:32:00,
2013-06-21 20:48:00,72.9,68.8,30.06,NNE,22,0.0,-999.0,87,-99.99,,,0.00,Acu-Link.com,2013-06-22 00:48:00,
2013-06-21 21:03:00,71.4,68.0,30.06,NNE,22,0.0,-999.0,89,-99.99,,,0.00,Acu-Link.com,2013-06-22 01:03:00,
2013-06-21 21:18:00,70.0,67.2,30.06,West,270,0.0,-999.0,91,-99.99,,,0.00,Acu-Link.com,2013-06-22 01:18:00,
2013-06-21 21:33:00,68.9,66.8,30.07,North,0,0.0,-999.0,93,-99.99,,,0.00,Acu-Link.com,2013-06-22 01:33:00,
2013-06-21 21:48:00,68.4,66.6,30.08,NNW,337,0.0,-999.0,94,-99.99,,,0.00,Acu-Link.com,2013-06-22 01:48:00,
2013-06-21 22:04:00,67.5,66.3,30.08,NW,315,0.0,-999.0,96,-99.99,,,0.00,Acu-Link.com,2013-06-22 02:04:00,
2013-06-21 22:19:00,67.1,66.2,30.09,WNW,292,0.0,-999.0,97,-99.99,,,0.00,Acu-Link.com,2013-06-22 02:19:00,
2013-06-21 22:34:00,66.4,65.5,30.10,WNW,292,0.0,-999.0,97,-99.99,,,0.00,Acu-Link.com,2013-06-22 02:34:00,
2013-06-21 22:49:00,66.2,65.6,30.10,WNW,292,0.0,-999.0,98,-99.99,,,0.00,Acu-Link.com,2013-06-22 02:49:00,
2013-06-21 23:04:00,65.7,65.1,30.10,West,270,0.0,-999.0,98,-99.99,,,0.00,Acu-Link.com,2013-06-22 03:04:00,
2013-06-21 23:19:00,65.3,64.7,30.11,NW,315,0.0,-999.0,98,-99.99,,,0.00,Acu-Link.com,2013-06-22 03:19:00,
2013-06-21 23:34:00,65.3,64.7,30.11,NNW,337,0.0,-999.0,98,-99.99,,,0.00,Acu-Link.com,2013-06-22 03:34:00,
2013-06-21 23:49:00,65.1,64.5,30.11,NNW,337,0.0,-999.0,98,-99.99,,,0.00,Acu-Link.com,2013-06-22 03:49:00,